createdAt,value
2022-10-28T00:01:19.249Z,5.20
2022-10-28T00:03:56.006Z,6.30
2022-10-28T00:06:30.209Z,4.50
2022-10-28T00:08:57.900Z,5.40
2022-10-28T00:11:31.531Z,5.43
2022-10-28T00:14:01.483Z,5.20
2022-10-28T00:16:32.137Z,6.47
2022-10-28T00:19:00.537Z,5.67
2022-10-28T00:21:33.637Z,5.30
2022-10-28T00:24:00.887Z,5.97
2022-10-28T00:26:31.457Z,5.37
2022-10-28T00:29:02.430Z,5.10
2022-10-28T00:31:30.940Z,5.23
2022-10-28T00:34:00.472Z,5.00
2022-10-28T00:36:34.572Z,4.93
2022-10-28T00:39:03.934Z,5.00
2022-10-28T00:41:35.965Z,4.27
2022-10-28T00:44:55.277Z,4.40
2022-10-28T00:47:44.314Z,3.93
2022-10-28T00:50:16.885Z,4.57
2022-10-28T00:52:47.390Z,4.30
2022-10-28T00:55:17.948Z,4.00
2022-10-28T00:57:46.196Z,4.33
2022-10-28T01:00:14.286Z,4.80
2022-10-28T01:02:49.441Z,4.30
2022-10-28T01:05:22.967Z,4.00
2022-10-28T01:07:55.119Z,4.47
2022-10-28T01:10:33.824Z,4.40
2022-10-28T01:13:31.552Z,3.43
2022-10-28T01:16:24.662Z,3.67
2022-10-28T01:19:06.459Z,4.13
2022-10-28T01:22:04.154Z,3.87
2022-10-28T01:25:38.435Z,3.57
2022-10-28T01:28:34.114Z,3.80
2022-10-28T01:31:19.399Z,3.87
2022-10-28T01:34:05.149Z,3.40
2022-10-28T01:36:42.130Z,3.60
2022-10-28T01:39:42.796Z,4.00
2022-10-28T01:42:32.030Z,3.83
2022-10-28T01:45:17.666Z,3.43
2022-10-28T01:48:01.750Z,3.70
2022-10-28T01:50:35.466Z,4.53
2022-10-28T01:53:09.934Z,4.63
2022-10-28T01:55:40.411Z,4.70
2022-10-28T01:58:12.376Z,3.53
2022-10-28T02:00:40.942Z,3.30
2022-10-28T02:03:09.539Z,3.57
2022-10-28T02:05:47.014Z,3.90
2022-10-28T02:08:44.875Z,3.80
2022-10-28T02:12:23.944Z,3.80
2022-10-28T02:15:30.723Z,5.50
2022-10-28T02:18:14.243Z,3.60
2022-10-28T02:20:56.226Z,4.03
2022-10-28T02:23:48.564Z,3.73
2022-10-28T02:26:21.865Z,3.43
2022-10-28T02:29:26.664Z,3.20
2022-10-28T02:32:02.773Z,4.03
2022-10-28T02:34:38.971Z,3.67
2022-10-28T02:37:13.649Z,3.33
2022-10-28T02:39:45.481Z,3.77
2022-10-28T02:42:24.090Z,3.93
2022-10-28T02:45:00.305Z,3.77
2022-10-28T02:47:32.200Z,3.47
2022-10-28T02:50:03.610Z,3.23
2022-10-28T02:52:32.570Z,3.93
2022-10-28T02:55:04.644Z,3.50
2022-10-28T02:57:35.839Z,3.73
2022-10-28T03:00:09.161Z,3.50
2022-10-28T03:02:36.218Z,3.63
2022-10-28T03:05:05.699Z,4.03
2022-10-28T03:07:33.019Z,3.57
2022-10-28T03:09:59.957Z,3.90
2022-10-28T03:12:26.967Z,4.00
2022-10-28T03:14:53.863Z,3.47
2022-10-28T03:17:20.735Z,4.00
2022-10-28T03:19:47.646Z,3.97
2022-10-28T03:22:14.594Z,5.07
2022-10-28T03:24:41.422Z,5.53
2022-10-28T03:27:08.258Z,4.70
2022-10-28T03:29:35.147Z,4.80
2022-10-28T03:32:02.083Z,5.37
2022-10-28T03:34:29.153Z,4.30
2022-10-28T03:36:56.015Z,4.97
2022-10-28T03:39:22.873Z,4.70
2022-10-28T03:41:49.785Z,4.30
2022-10-28T03:44:16.661Z,4.10
2022-10-28T03:46:43.596Z,3.80
2022-10-28T03:49:10.479Z,4.03
2022-10-28T03:51:37.375Z,3.33
2022-10-28T03:54:04.367Z,3.70
2022-10-28T03:56:31.308Z,4.17
2022-10-28T03:58:58.262Z,3.40
2022-10-28T04:01:25.277Z,3.93
2022-10-28T04:03:52.260Z,4.50
2022-10-28T04:06:19.141Z,3.80
2022-10-28T04:08:45.963Z,4.50
2022-10-28T04:11:12.877Z,3.97
2022-10-28T04:13:39.859Z,3.07
2022-10-28T04:16:07.235Z,3.33
2022-10-28T04:18:35.416Z,4.00
2022-10-28T04:21:03.387Z,3.70
2022-10-28T04:23:30.376Z,3.73
2022-10-28T04:25:57.654Z,3.23
2022-10-28T04:28:24.718Z,3.80
2022-10-28T04:30:51.728Z,3.60
2022-10-28T04:33:18.694Z,3.37
2022-10-28T04:35:45.734Z,3.53
2022-10-28T04:38:14.231Z,2.57
2022-10-28T04:40:41.460Z,3.20
2022-10-28T04:43:10.011Z,3.33
2022-10-28T04:45:38.823Z,3.33
2022-10-28T04:48:06.096Z,3.40
2022-10-28T04:50:33.161Z,3.83
2022-10-28T04:53:00.511Z,3.57
2022-10-28T04:55:27.510Z,4.10
2022-10-28T04:57:57.699Z,3.50
2022-10-28T05:00:26.031Z,4.03
2022-10-28T05:02:53.392Z,3.43
2022-10-28T05:05:20.821Z,8.70
2022-10-28T05:07:47.729Z,8.97
2022-10-28T05:10:17.991Z,39.13
2022-10-28T05:12:46.097Z,30.57
2022-10-28T05:15:14.601Z,12.17
2022-10-28T05:17:44.503Z,15.07
2022-10-28T05:20:13.935Z,18.10
2022-10-28T05:22:50.709Z,9.10
2022-10-28T05:25:18.379Z,5.33
2022-10-28T05:27:45.794Z,4.43
2022-10-28T05:30:13.679Z,3.93
2022-10-28T05:32:40.871Z,5.30
2022-10-28T05:35:08.893Z,5.07
2022-10-28T05:37:35.867Z,4.70
2022-10-28T05:40:03.679Z,4.67
2022-10-28T05:42:30.956Z,4.53
2022-10-28T05:44:57.912Z,4.00
2022-10-28T05:47:24.816Z,4.20
2022-10-28T05:49:51.715Z,4.63
2022-10-28T05:52:18.635Z,4.73
2022-10-28T05:54:45.627Z,4.90
2022-10-28T05:57:12.613Z,5.37
2022-10-28T05:59:39.601Z,4.70
2022-10-28T06:02:06.524Z,4.50
2022-10-28T06:04:33.459Z,4.60
2022-10-28T06:07:00.335Z,5.73
2022-10-28T06:09:30.246Z,5.80
2022-10-28T06:11:55.561Z,5.50
2022-10-28T06:14:22.617Z,5.50
2022-10-28T06:16:50.140Z,4.83
2022-10-28T06:19:17.040Z,4.70
2022-10-28T06:21:43.907Z,4.93
2022-10-28T06:24:12.108Z,5.83
2022-10-28T06:26:39.554Z,6.73
2022-10-28T06:29:09.542Z,63.23
2022-10-28T06:31:40.623Z,11.10
2022-10-28T06:34:08.808Z,5.70
2022-10-28T06:36:35.999Z,5.00
2022-10-28T06:39:03.831Z,6.70
2022-10-28T06:41:31.270Z,7.33
2022-10-28T06:43:58.200Z,8.47
2022-10-28T06:46:25.757Z,5.10
2022-10-28T06:48:55.477Z,4.77
2022-10-28T06:51:23.469Z,4.87
2022-10-28T06:53:51.963Z,5.50
2022-10-28T06:56:19.099Z,5.60
2022-10-28T06:58:53.678Z,6.07
2022-10-28T07:01:21.625Z,6.53
2022-10-28T07:03:49.945Z,7.57
2022-10-28T07:06:18.202Z,6.20
2022-10-28T07:08:45.183Z,6.27
2022-10-28T07:11:12.123Z,4.97
2022-10-28T07:13:39.217Z,14.37
2022-10-28T07:16:06.539Z,14.83
2022-10-28T07:18:33.400Z,10.30
2022-10-28T07:21:01.795Z,5.73
2022-10-28T07:23:34.151Z,4.20
2022-10-28T07:26:01.206Z,4.60
2022-10-28T07:28:28.584Z,3.90
2022-10-28T07:30:55.592Z,4.33
2022-10-28T07:33:22.449Z,4.43
2022-10-28T07:35:49.458Z,3.90
2022-10-28T07:38:16.362Z,4.60
2022-10-28T07:40:43.312Z,4.60
2022-10-28T07:43:10.409Z,4.13
2022-10-28T07:45:37.938Z,5.00
2022-10-28T07:48:06.219Z,4.20
2022-10-28T07:50:33.249Z,5.07
2022-10-28T07:53:00.500Z,4.80
2022-10-28T07:55:27.662Z,5.87
2022-10-28T07:57:54.829Z,5.10
2022-10-28T08:00:22.302Z,8.93
2022-10-28T08:02:49.390Z,8.97
2022-10-28T08:05:16.450Z,6.80
2022-10-28T08:07:43.318Z,4.50
2022-10-28T08:10:10.397Z,4.70
2022-10-28T08:12:37.273Z,4.30
2022-10-28T08:15:04.913Z,4.43
2022-10-28T08:17:31.835Z,4.27
2022-10-28T08:19:58.785Z,4.37
2022-10-28T08:22:25.632Z,4.70
2022-10-28T08:24:52.489Z,4.53
2022-10-28T08:27:19.373Z,3.90
2022-10-28T08:29:46.197Z,10.43
2022-10-28T08:32:13.106Z,52.80
2022-10-28T08:34:42.694Z,18.67
2022-10-28T08:37:10.951Z,7.03
2022-10-28T08:39:37.908Z,4.30
2022-10-28T08:42:46.823Z,5.07
2022-10-28T08:45:21.162Z,6.13
2022-10-28T08:48:31.480Z,5.10
2022-10-28T08:51:13.176Z,4.00
2022-10-28T08:54:12.919Z,4.23
2022-10-28T08:56:48.610Z,6.07
2022-10-28T08:59:23.320Z,5.80
2022-10-28T09:01:57.305Z,5.40
2022-10-28T09:04:45.770Z,4.70
2022-10-28T09:07:22.103Z,4.40
2022-10-28T09:09:50.804Z,4.20
2022-10-28T09:13:17.213Z,4.57
2022-10-28T09:16:03.961Z,4.40
2022-10-28T09:18:50.689Z,5.30
2022-10-28T09:21:32.539Z,5.43
2022-10-28T09:24:11.829Z,5.17
2022-10-28T09:27:18.084Z,5.13
2022-10-28T09:30:03.933Z,4.70
2022-10-28T09:32:52.563Z,4.53
2022-10-28T09:35:25.182Z,5.43
2022-10-28T09:38:14.729Z,5.20
2022-10-28T09:40:50.465Z,4.63
2022-10-28T09:43:27.260Z,4.73
2022-10-28T09:46:01.945Z,5.40
2022-10-28T09:48:34.693Z,4.87
2022-10-28T09:51:01.626Z,6.20
2022-10-28T09:53:39.328Z,6.60
2022-10-28T09:56:09.890Z,9.80
2022-10-28T09:58:38.089Z,21.17
2022-10-28T10:01:05.231Z,25.27
2022-10-28T10:03:32.959Z,10.10
2022-10-28T10:06:29.780Z,6.07
2022-10-28T10:08:57.199Z,5.50
2022-10-28T10:11:44.033Z,5.23
2022-10-28T10:14:18.618Z,4.43
2022-10-28T10:16:52.931Z,4.50
2022-10-28T10:19:20.110Z,4.53
2022-10-28T10:21:49.696Z,4.40
2022-10-28T10:24:26.378Z,5.23
2022-10-28T10:26:54.412Z,5.57
2022-10-28T10:29:22.521Z,9.10
2022-10-28T10:32:16.561Z,7.07
2022-10-28T10:34:58.487Z,5.03
2022-10-28T10:37:25.544Z,5.30
2022-10-28T10:40:33.811Z,4.80
2022-10-28T10:43:22.577Z,4.83
2022-10-28T10:46:12.799Z,5.17
2022-10-28T10:48:39.796Z,5.00
2022-10-28T10:51:18.401Z,4.90
2022-10-28T10:53:50.728Z,14.23
2022-10-28T10:56:37.966Z,10.73
2022-10-28T10:59:16.045Z,6.80
2022-10-28T11:01:43.104Z,4.20
2022-10-28T11:04:18.822Z,4.23
2022-10-28T11:06:51.701Z,4.90
2022-10-28T11:09:38.411Z,4.70
2022-10-28T11:12:35.786Z,4.10
2022-10-28T11:15:15.886Z,4.53
2022-10-28T11:18:01.299Z,4.13
2022-10-28T11:21:04.308Z,4.30
2022-10-28T11:24:07.192Z,5.37
2022-10-28T11:26:45.142Z,5.10
2022-10-28T11:29:14.912Z,4.37
2022-10-28T11:32:19.437Z,5.23
2022-10-28T11:34:59.842Z,5.10
2022-10-28T11:37:55.571Z,4.93
2022-10-28T11:40:56.124Z,4.90
2022-10-28T11:43:50.888Z,4.93
2022-10-28T11:46:42.346Z,5.20
2022-10-28T11:49:36.130Z,5.10
2022-10-28T11:52:14.649Z,5.53
2022-10-28T11:54:53.356Z,4.80
2022-10-28T11:58:04.537Z,5.73
2022-10-28T12:00:41.436Z,21.00
2022-10-28T12:03:28.251Z,7.27
2022-10-28T12:06:05.435Z,5.20
2022-10-28T12:09:02.657Z,4.97
2022-10-28T12:12:12.521Z,5.70
2022-10-28T12:15:20.153Z,4.87
2022-10-28T12:18:18.857Z,4.97
2022-10-28T12:21:14.122Z,5.60
2022-10-28T12:23:42.784Z,5.47
2022-10-28T12:26:16.857Z,5.70
2022-10-28T12:28:55.777Z,5.70
2022-10-28T12:31:38.223Z,6.00
2022-10-28T12:34:11.934Z,6.93
2022-10-28T12:37:00.505Z,6.30
2022-10-28T12:39:56.001Z,6.70
2022-10-28T12:42:37.220Z,5.47
2022-10-28T12:45:12.062Z,6.40
2022-10-28T12:48:06.488Z,6.70
2022-10-28T12:50:53.667Z,6.30
2022-10-28T12:53:47.295Z,6.00
2022-10-28T12:56:31.786Z,6.10
2022-10-28T12:59:19.661Z,6.70
2022-10-28T13:01:49.558Z,7.87
2022-10-28T13:04:17.091Z,9.50
2022-10-28T13:07:25.101Z,8.40
2022-10-28T13:10:12.418Z,7.13
2022-10-28T13:12:42.530Z,6.10
2022-10-28T13:15:22.144Z,7.13
2022-10-28T13:18:28.114Z,7.03
2022-10-28T13:21:30.737Z,6.77
2022-10-28T13:24:40.718Z,7.10
2022-10-28T13:27:13.723Z,6.40
2022-10-28T13:29:43.404Z,7.10
2022-10-28T13:32:42.955Z,8.10
2022-10-28T13:35:24.921Z,8.20
2022-10-28T13:37:54.537Z,7.80
2022-10-28T13:40:43.167Z,9.10
2022-10-28T13:43:21.803Z,9.10
2022-10-28T13:45:52.239Z,9.57
2022-10-28T13:48:41.020Z,8.17
2022-10-28T13:51:10.804Z,9.57
2022-10-28T13:53:46.798Z,8.67
2022-10-28T13:56:44.238Z,9.30
2022-10-28T13:59:24.456Z,8.73
2022-10-28T14:02:07.474Z,9.47
2022-10-28T14:04:43.849Z,8.93
2022-10-28T14:07:10.692Z,9.23
2022-10-28T14:09:41.253Z,9.20
2022-10-28T14:12:27.200Z,8.70
2022-10-28T14:15:15.277Z,9.27
2022-10-28T14:18:41.542Z,9.53
2022-10-28T14:21:04.564Z,8.83
2022-10-28T14:23:36.440Z,8.60
2022-10-28T14:26:05.856Z,8.93
2022-10-28T14:28:33.388Z,8.60
2022-10-28T14:31:09.498Z,8.80
2022-10-28T14:33:43.520Z,8.77
2022-10-28T14:36:13.087Z,8.87
2022-10-28T14:39:29.064Z,7.20
2022-10-28T14:42:22.845Z,7.90
2022-10-28T14:45:20.813Z,8.60
2022-10-28T14:48:20.582Z,8.00
2022-10-28T14:50:51.557Z,8.47
2022-10-28T14:53:26.043Z,7.30
2022-10-28T14:56:04.360Z,8.60
2022-10-28T14:58:38.068Z,8.40
2022-10-28T15:01:17.273Z,9.30
2022-10-28T15:03:51.152Z,7.80
2022-10-28T15:06:39.113Z,9.00
2022-10-28T15:09:19.178Z,8.87
2022-10-28T15:11:56.194Z,7.80
2022-10-28T15:14:37.564Z,8.13
2022-10-28T15:17:17.379Z,8.33
2022-10-28T15:19:52.529Z,8.83
2022-10-28T15:22:32.102Z,8.40
2022-10-28T15:25:14.485Z,8.83
2022-10-28T15:27:45.394Z,8.90
2022-10-28T15:30:23.798Z,9.70
2022-10-28T15:32:56.037Z,9.50
2022-10-28T15:35:35.501Z,8.50
2022-10-28T15:38:22.999Z,8.43
2022-10-28T15:40:50.365Z,9.00
2022-10-28T15:43:29.092Z,9.80
2022-10-28T15:46:16.216Z,9.47
2022-10-28T15:48:43.253Z,9.13
2022-10-28T15:51:16.584Z,12.00
2022-10-28T15:53:45.653Z,10.40
2022-10-28T15:56:15.717Z,9.63
2022-10-28T15:58:45.933Z,8.77
2022-10-28T16:01:40.788Z,9.90
2022-10-28T16:04:23.124Z,10.10
2022-10-28T16:06:53.320Z,9.60
2022-10-28T16:09:32.739Z,9.90
2022-10-28T16:12:04.196Z,11.07
2022-10-28T16:14:40.709Z,17.50
2022-10-28T16:17:18.460Z,13.27
2022-10-28T16:19:59.680Z,11.40
2022-10-28T16:22:29.355Z,13.60
2022-10-28T16:24:57.527Z,11.50
2022-10-28T16:27:30.882Z,12.00
2022-10-28T16:29:58.524Z,11.33
2022-10-28T16:32:40.886Z,11.67
2022-10-28T16:35:20.947Z,11.67
2022-10-28T16:37:54.722Z,12.33
2022-10-28T16:40:50.885Z,13.47
2022-10-28T16:43:16.519Z,12.17
2022-10-28T16:45:43.470Z,13.80
2022-10-28T16:48:13.893Z,12.73
2022-10-28T16:50:44.101Z,13.00
2022-10-28T16:53:14.674Z,12.33
2022-10-28T16:55:41.956Z,14.20
2022-10-28T16:58:09.189Z,14.53
2022-10-28T17:00:37.236Z,14.40
2022-10-28T17:03:05.024Z,13.47
2022-10-28T17:05:32.575Z,14.13
2022-10-28T17:07:59.892Z,13.97
2022-10-28T17:10:27.996Z,14.60
2022-10-28T17:12:55.762Z,13.60
2022-10-28T17:15:23.522Z,14.43
2022-10-28T17:17:52.623Z,16.40
2022-10-28T17:20:20.633Z,19.47
2022-10-28T17:22:47.786Z,21.03
2022-10-28T17:25:14.883Z,19.77
2022-10-28T17:27:42.308Z,22.40
2022-10-28T17:30:10.164Z,18.93
2022-10-28T17:32:37.301Z,19.90
2022-10-28T17:35:04.390Z,22.40
2022-10-28T17:37:32.580Z,23.40
2022-10-28T17:39:59.928Z,19.40
2022-10-28T17:42:26.928Z,21.00
2022-10-28T17:44:53.792Z,24.10
2022-10-28T17:47:21.753Z,21.20
2022-10-28T17:49:48.631Z,20.43
2022-10-28T17:52:15.642Z,20.47
2022-10-28T17:54:42.719Z,24.00
2022-10-28T17:57:09.764Z,24.00
2022-10-28T17:59:36.826Z,23.20
2022-10-28T18:02:03.821Z,24.20
2022-10-28T18:04:30.921Z,23.07
2022-10-28T18:06:58.340Z,21.80
2022-10-28T18:09:27.604Z,25.27
2022-10-28T18:11:54.542Z,25.37
2022-10-28T18:14:21.579Z,26.90
2022-10-28T18:16:50.285Z,27.00
2022-10-28T18:19:17.750Z,25.20
2022-10-28T18:21:45.377Z,24.17
2022-10-28T18:24:12.526Z,23.53
2022-10-28T18:26:40.843Z,24.40
2022-10-28T18:29:13.534Z,23.70
2022-10-28T18:31:42.284Z,23.17
2022-10-28T18:34:09.305Z,22.00
2022-10-28T18:36:36.378Z,21.40
2022-10-28T18:39:06.855Z,21.77
2022-10-28T18:41:38.080Z,17.93
2022-10-28T18:44:05.927Z,19.93
2022-10-28T18:46:37.870Z,18.33
2022-10-28T18:49:05.517Z,19.80
2022-10-28T18:51:35.761Z,18.40
2022-10-28T18:54:02.944Z,17.80
2022-10-28T18:56:30.630Z,18.10
2022-10-28T18:58:58.554Z,20.17
2022-10-28T19:01:28.623Z,18.10
2022-10-28T19:04:01.543Z,18.87
2022-10-28T19:06:32.753Z,15.53
2022-10-28T19:09:02.604Z,16.40
2022-10-28T19:11:31.510Z,17.00
2022-10-28T19:14:01.310Z,16.87
2022-10-28T19:16:30.684Z,18.13
2022-10-28T19:18:59.398Z,14.60
2022-10-28T19:21:27.912Z,16.33
2022-10-28T19:23:55.581Z,15.73
2022-10-28T19:26:23.175Z,16.30
2022-10-28T19:28:50.802Z,13.57
2022-10-28T19:31:21.686Z,14.83
2022-10-28T19:33:48.994Z,13.77
2022-10-28T19:36:27.503Z,14.30
2022-10-28T19:38:55.657Z,13.43
2022-10-28T19:41:26.507Z,14.40
2022-10-28T19:44:01.434Z,12.97
2022-10-28T19:46:31.221Z,13.57
2022-10-28T19:49:00.597Z,12.73
2022-10-28T19:51:30.969Z,15.00
2022-10-28T19:54:00.416Z,14.13
2022-10-28T19:56:30.292Z,12.40
2022-10-28T19:59:00.023Z,12.77
2022-10-28T20:01:31.120Z,12.67
2022-10-28T20:03:58.650Z,14.13
2022-10-28T20:06:35.583Z,16.17
2022-10-28T20:09:03.077Z,13.47
2022-10-28T20:11:33.038Z,12.17
2022-10-28T20:14:08.413Z,12.57
2022-10-28T20:16:36.021Z,12.50
2022-10-28T20:19:03.369Z,11.90
2022-10-28T20:21:33.392Z,11.67
2022-10-28T20:24:01.092Z,11.70
2022-10-28T20:26:31.176Z,12.17
2022-10-28T20:29:02.944Z,12.87
2022-10-28T20:31:32.155Z,12.33
2022-10-28T20:34:04.051Z,12.33
2022-10-28T20:36:37.818Z,10.90
2022-10-28T20:39:17.590Z,11.07
2022-10-28T20:41:47.139Z,10.33
2022-10-28T20:44:14.572Z,10.70
2022-10-28T20:46:41.932Z,9.97
2022-10-28T20:49:09.778Z,10.63
2022-10-28T20:51:36.933Z,10.00
2022-10-28T20:54:04.076Z,9.37
2022-10-28T20:56:36.330Z,9.90
2022-10-28T20:59:03.947Z,9.57
2022-10-28T21:01:34.426Z,9.07
2022-10-28T21:04:05.619Z,10.03
2022-10-28T21:06:32.908Z,9.77
2022-10-28T21:08:59.893Z,9.20
2022-10-28T21:11:28.679Z,9.60
2022-10-28T21:13:59.353Z,9.53
2022-10-28T21:16:28.078Z,9.73
2022-10-28T21:18:55.300Z,10.90
2022-10-28T21:21:23.716Z,9.80
2022-10-28T21:23:50.865Z,10.63
2022-10-28T21:26:17.927Z,10.80
2022-10-28T21:28:48.781Z,10.00
2022-10-28T21:31:18.079Z,10.47
2022-10-28T21:33:45.859Z,9.00
2022-10-28T21:36:18.919Z,9.83
2022-10-28T21:38:46.585Z,9.43
2022-10-28T21:41:18.474Z,10.20
2022-10-28T21:43:48.559Z,9.60
2022-10-28T21:46:17.470Z,9.90
2022-10-28T21:48:45.033Z,10.47
2022-10-28T21:51:15.263Z,9.43
2022-10-28T21:53:44.201Z,10.07
2022-10-28T21:56:19.896Z,8.43
2022-10-28T21:58:49.606Z,9.63
2022-10-28T22:01:23.561Z,9.33
2022-10-28T22:03:52.392Z,8.67
2022-10-28T22:06:19.299Z,8.90
2022-10-28T22:08:46.845Z,8.60
2022-10-28T22:11:19.202Z,8.63
2022-10-28T22:13:47.112Z,8.60
2022-10-28T22:16:17.068Z,8.43
2022-10-28T22:18:45.302Z,8.70
2022-10-28T22:21:18.663Z,8.50
2022-10-28T22:23:45.817Z,8.10
2022-10-28T22:26:24.801Z,7.57
2022-10-28T22:28:52.632Z,7.27
2022-10-28T22:31:26.778Z,8.43
2022-10-28T22:33:53.908Z,8.40
2022-10-28T22:36:24.345Z,8.83
2022-10-28T22:38:52.246Z,8.43
2022-10-28T22:41:25.248Z,8.77
2022-10-28T22:44:00.949Z,8.93
2022-10-28T22:46:33.784Z,8.93
2022-10-28T22:49:00.991Z,8.57
2022-10-28T22:51:27.911Z,8.10
2022-10-28T22:53:54.874Z,8.53
2022-10-28T22:56:24.313Z,9.10
2022-10-28T22:58:57.574Z,8.13
2022-10-28T23:01:27.788Z,8.80
2022-10-28T23:03:56.454Z,7.80
2022-10-28T23:06:26.114Z,8.97
2022-10-28T23:08:54.339Z,8.40
2022-10-28T23:11:23.025Z,8.43
2022-10-28T23:13:52.443Z,8.37
2022-10-28T23:16:22.405Z,8.20
2022-10-28T23:18:49.457Z,7.97
2022-10-28T23:21:22.541Z,8.27
2022-10-28T23:23:57.581Z,8.00
2022-10-28T23:26:26.659Z,7.83
2022-10-28T23:28:56.442Z,8.17
2022-10-28T23:31:24.231Z,6.70
2022-10-28T23:33:53.024Z,7.73
2022-10-28T23:36:20.006Z,7.73
2022-10-28T23:38:47.098Z,7.40
2022-10-28T23:41:18.745Z,7.40
2022-10-28T23:43:46.997Z,6.47
2022-10-28T23:46:13.897Z,7.00
2022-10-28T23:48:40.844Z,7.43
2022-10-28T23:51:07.965Z,6.90
2022-10-28T23:53:35.145Z,7.10
2022-10-28T23:56:02.063Z,6.90
2022-10-28T23:58:28.997Z,7.87
